sensor_id;sensor_type;location;lat;lon;timestamp;temperature;humidity
2100;DHT22;1055;48.854;9.302;2023-12-20T00:01:48;6.90;99.90
2100;DHT22;1055;48.854;9.302;2023-12-20T00:04:14;6.90;99.90
2100;DHT22;1055;48.854;9.302;2023-12-20T00:06:40;6.90;99.90
2100;DHT22;1055;48.854;9.302;2023-12-20T00:09:05;6.90;99.90
2100;DHT22;1055;48.854;9.302;2023-12-20T00:11:31;7.00;99.90
2100;DHT22;1055;48.854;9.302;2023-12-20T00:13:56;7.00;99.90
2100;DHT22;1055;48.854;9.302;2023-12-20T00:16:22;7.10;99.90
2100;DHT22;1055;48.854;9.302;2023-12-20T00:18:48;7.30;99.90
2100;DHT22;1055;48.854;9.302;2023-12-20T00:21:13;7.50;99.90
2100;DHT22;1055;48.854;9.302;2023-12-20T00:23:39;7.60;99.90
2100;DHT22;1055;48.854;9.302;2023-12-20T00:26:04;7.70;99.90
2100;DHT22;1055;48.854;9.302;2023-12-20T00:28:30;7.60;99.90
2100;DHT22;1055;48.854;9.302;2023-12-20T00:30:55;7.80;99.90
2100;DHT22;1055;48.854;9.302;2023-12-20T00:33:21;7.70;99.90
2100;DHT22;1055;48.854;9.302;2023-12-20T00:35:47;8.10;99.90
2100;DHT22;1055;48.854;9.302;2023-12-20T00:38:12;8.00;99.90
2100;DHT22;1055;48.854;9.302;2023-12-20T00:40:38;7.80;99.90
2100;DHT22;1055;48.854;9.302;2023-12-20T00:43:04;7.70;99.90
2100;DHT22;1055;48.854;9.302;2023-12-20T00:45:29;7.60;99.90
2100;DHT22;1055;48.854;9.302;2023-12-20T00:47:55;7.60;99.90
2100;DHT22;1055;48.854;9.302;2023-12-20T00:50:20;7.50;99.90
2100;DHT22;1055;48.854;9.302;2023-12-20T00:52:47;7.50;99.90
2100;DHT22;1055;48.854;9.302;2023-12-20T00:55:13;7.20;99.90
2100;DHT22;1055;48.854;9.302;2023-12-20T00:57:39;7.10;99.90
2100;DHT22;1055;48.854;9.302;2023-12-20T01:00:05;7.10;99.90
2100;DHT22;1055;48.854;9.302;2023-12-20T01:02:31;7.10;99.90
2100;DHT22;1055;48.854;9.302;2023-12-20T01:04:56;7.20;99.90
2100;DHT22;1055;48.854;9.302;2023-12-20T01:07:22;7.10;99.90
2100;DHT22;1055;48.854;9.302;2023-12-20T01:09:47;7.20;99.90
2100;DHT22;1055;48.854;9.302;2023-12-20T01:12:13;7.30;99.90
2100;DHT22;1055;48.854;9.302;2023-12-20T01:14:39;7.30;99.90
2100;DHT22;1055;48.854;9.302;2023-12-20T01:17:05;7.30;99.90
2100;DHT22;1055;48.854;9.302;2023-12-20T01:19:30;7.40;99.90
2100;DHT22;1055;48.854;9.302;2023-12-20T01:21:56;7.40;99.90
2100;DHT22;1055;48.854;9.302;2023-12-20T01:24:21;7.50;99.90
2100;DHT22;1055;48.854;9.302;2023-12-20T01:26:47;7.60;99.90
2100;DHT22;1055;48.854;9.302;2023-12-20T01:29:13;7.60;99.90
2100;DHT22;1055;48.854;9.302;2023-12-20T01:31:39;7.80;99.90
2100;DHT22;1055;48.854;9.302;2023-12-20T01:34:06;7.70;99.90
2100;DHT22;1055;48.854;9.302;2023-12-20T01:36:31;7.90;99.90
2100;DHT22;1055;48.854;9.302;2023-12-20T01:38:57;8.00;99.90
2100;DHT22;1055;48.854;9.302;2023-12-20T01:41:23;8.00;99.90
2100;DHT22;1055;48.854;9.302;2023-12-20T01:43:48;8.00;99.90
2100;DHT22;1055;48.854;9.302;2023-12-20T01:46:15;8.00;99.90
2100;DHT22;1055;48.854;9.302;2023-12-20T01:48:41;8.00;99.90
2100;DHT22;1055;48.854;9.302;2023-12-20T01:51:06;7.70;99.90
2100;DHT22;1055;48.854;9.302;2023-12-20T01:53:32;7.90;99.90
2100;DHT22;1055;48.854;9.302;2023-12-20T01:55:58;7.90;99.90
2100;DHT22;1055;48.854;9.302;2023-12-20T01:58:25;7.80;99.90
2100;DHT22;1055;48.854;9.302;2023-12-20T02:00:51;7.90;99.90
2100;DHT22;1055;48.854;9.302;2023-12-20T02:03:17;8.00;99.90
2100;DHT22;1055;48.854;9.302;2023-12-20T02:05:44;8.10;99.90
2100;DHT22;1055;48.854;9.302;2023-12-20T02:08:11;8.10;99.90
2100;DHT22;1055;48.854;9.302;2023-12-20T02:10:36;8.00;99.90
2100;DHT22;1055;48.854;9.302;2023-12-20T02:13:03;8.00;99.90
2100;DHT22;1055;48.854;9.302;2023-12-20T02:15:29;8.00;99.90
2100;DHT22;1055;48.854;9.302;2023-12-20T02:17:55;8.10;99.90
2100;DHT22;1055;48.854;9.302;2023-12-20T02:20:21;8.10;99.90
2100;DHT22;1055;48.854;9.302;2023-12-20T02:22:46;8.10;99.90
2100;DHT22;1055;48.854;9.302;2023-12-20T02:25:12;8.20;99.90
2100;DHT22;1055;48.854;9.302;2023-12-20T02:27:38;8.10;99.90
2100;DHT22;1055;48.854;9.302;2023-12-20T02:30:05;8.10;99.90
2100;DHT22;1055;48.854;9.302;2023-12-20T02:32:31;8.00;99.90
2100;DHT22;1055;48.854;9.302;2023-12-20T02:34:57;8.10;99.90
2100;DHT22;1055;48.854;9.302;2023-12-20T02:37:23;8.20;99.90
2100;DHT22;1055;48.854;9.302;2023-12-20T02:39:49;8.10;99.90
2100;DHT22;1055;48.854;9.302;2023-12-20T02:42:14;8.10;99.90
2100;DHT22;1055;48.854;9.302;2023-12-20T02:44:40;7.70;99.90
2100;DHT22;1055;48.854;9.302;2023-12-20T02:47:05;7.60;99.90
2100;DHT22;1055;48.854;9.302;2023-12-20T02:49:31;7.60;99.90
2100;DHT22;1055;48.854;9.302;2023-12-20T02:51:57;7.30;99.90
2100;DHT22;1055;48.854;9.302;2023-12-20T02:54:22;7.30;99.90
2100;DHT22;1055;48.854;9.302;2023-12-20T02:56:48;7.10;99.90
2100;DHT22;1055;48.854;9.302;2023-12-20T02:59:14;7.10;99.90
2100;DHT22;1055;48.854;9.302;2023-12-20T03:01:45;7.10;99.90
2100;DHT22;1055;48.854;9.302;2023-12-20T03:04:11;7.10;99.90
2100;DHT22;1055;48.854;9.302;2023-12-20T03:06:37;7.10;99.90
2100;DHT22;1055;48.854;9.302;2023-12-20T03:09:03;6.80;99.90
2100;DHT22;1055;48.854;9.302;2023-12-20T03:11:28;6.70;99.90
2100;DHT22;1055;48.854;9.302;2023-12-20T03:13:55;6.70;99.90
2100;DHT22;1055;48.854;9.302;2023-12-20T03:16:21;6.60;99.90
2100;DHT22;1055;48.854;9.302;2023-12-20T03:18:46;6.50;99.90
2100;DHT22;1055;48.854;9.302;2023-12-20T03:21:12;6.60;99.90
2100;DHT22;1055;48.854;9.302;2023-12-20T03:23:38;6.50;99.90
2100;DHT22;1055;48.854;9.302;2023-12-20T03:26:07;6.50;99.90
2100;DHT22;1055;48.854;9.302;2023-12-20T03:28:32;6.60;99.90
2100;DHT22;1055;48.854;9.302;2023-12-20T03:30:58;6.50;99.90
2100;DHT22;1055;48.854;9.302;2023-12-20T03:33:23;6.30;99.90
2100;DHT22;1055;48.854;9.302;2023-12-20T03:35:49;6.40;99.90
2100;DHT22;1055;48.854;9.302;2023-12-20T03:38:14;6.30;99.90
2100;DHT22;1055;48.854;9.302;2023-12-20T03:40:40;6.30;99.90
2100;DHT22;1055;48.854;9.302;2023-12-20T03:43:06;6.30;99.90
2100;DHT22;1055;48.854;9.302;2023-12-20T03:45:31;6.40;99.90
2100;DHT22;1055;48.854;9.302;2023-12-20T03:47:57;6.30;99.90
2100;DHT22;1055;48.854;9.302;2023-12-20T03:50:23;6.30;99.90
2100;DHT22;1055;48.854;9.302;2023-12-20T03:52:48;6.20;99.90
2100;DHT22;1055;48.854;9.302;2023-12-20T03:55:14;6.20;99.90
2100;DHT22;1055;48.854;9.302;2023-12-20T03:57:40;6.20;99.90
2100;DHT22;1055;48.854;9.302;2023-12-20T04:00:07;6.30;99.90
2100;DHT22;1055;48.854;9.302;2023-12-20T04:02:39;6.20;99.90
2100;DHT22;1055;48.854;9.302;2023-12-20T04:05:05;6.10;99.90
2100;DHT22;1055;48.854;9.302;2023-12-20T04:07:31;6.20;99.90
2100;DHT22;1055;48.854;9.302;2023-12-20T04:09:57;6.10;99.90
2100;DHT22;1055;48.854;9.302;2023-12-20T04:12:22;6.30;99.90
2100;DHT22;1055;48.854;9.302;2023-12-20T04:14:48;6.30;99.90
2100;DHT22;1055;48.854;9.302;2023-12-20T04:17:15;6.20;99.90
2100;DHT22;1055;48.854;9.302;2023-12-20T04:19:41;6.20;99.90
2100;DHT22;1055;48.854;9.302;2023-12-20T04:22:07;6.20;99.90
2100;DHT22;1055;48.854;9.302;2023-12-20T04:24:33;6.00;99.90
2100;DHT22;1055;48.854;9.302;2023-12-20T04:26:58;6.10;99.90
2100;DHT22;1055;48.854;9.302;2023-12-20T04:29:24;6.00;99.90
2100;DHT22;1055;48.854;9.302;2023-12-20T04:31:49;6.00;99.90
2100;DHT22;1055;48.854;9.302;2023-12-20T04:34:17;6.00;99.90
2100;DHT22;1055;48.854;9.302;2023-12-20T04:36:43;5.90;99.90
2100;DHT22;1055;48.854;9.302;2023-12-20T04:39:08;5.90;99.90
2100;DHT22;1055;48.854;9.302;2023-12-20T04:41:34;5.90;99.90
2100;DHT22;1055;48.854;9.302;2023-12-20T04:43:59;6.00;99.90
2100;DHT22;1055;48.854;9.302;2023-12-20T04:46:26;6.10;99.90
2100;DHT22;1055;48.854;9.302;2023-12-20T04:48:51;6.10;99.90
2100;DHT22;1055;48.854;9.302;2023-12-20T04:51:17;6.10;99.90
2100;DHT22;1055;48.854;9.302;2023-12-20T04:53:43;6.10;99.90
2100;DHT22;1055;48.854;9.302;2023-12-20T04:56:08;6.10;99.90
2100;DHT22;1055;48.854;9.302;2023-12-20T04:58:34;6.00;99.90
2100;DHT22;1055;48.854;9.302;2023-12-20T05:01:00;6.10;99.90
2100;DHT22;1055;48.854;9.302;2023-12-20T05:03:25;6.20;99.90
2100;DHT22;1055;48.854;9.302;2023-12-20T05:05:51;6.20;99.90
2100;DHT22;1055;48.854;9.302;2023-12-20T05:08:16;6.20;99.90
2100;DHT22;1055;48.854;9.302;2023-12-20T05:10:42;6.20;99.90
2100;DHT22;1055;48.854;9.302;2023-12-20T05:13:07;6.30;99.90
2100;DHT22;1055;48.854;9.302;2023-12-20T05:15:34;6.30;99.90
2100;DHT22;1055;48.854;9.302;2023-12-20T05:18:00;6.30;99.90
2100;DHT22;1055;48.854;9.302;2023-12-20T05:20:25;6.40;99.90
2100;DHT22;1055;48.854;9.302;2023-12-20T05:22:51;6.30;99.90
2100;DHT22;1055;48.854;9.302;2023-12-20T05:25:16;6.30;99.90
2100;DHT22;1055;48.854;9.302;2023-12-20T05:27:42;6.20;99.90
2100;DHT22;1055;48.854;9.302;2023-12-20T05:30:08;6.20;99.90
2100;DHT22;1055;48.854;9.302;2023-12-20T05:32:33;6.30;99.90
2100;DHT22;1055;48.854;9.302;2023-12-20T05:34:59;6.20;99.90
2100;DHT22;1055;48.854;9.302;2023-12-20T05:37:24;6.30;99.90
2100;DHT22;1055;48.854;9.302;2023-12-20T05:39:51;6.20;99.90
2100;DHT22;1055;48.854;9.302;2023-12-20T05:42:16;6.20;99.90
2100;DHT22;1055;48.854;9.302;2023-12-20T05:44:42;6.20;99.90
2100;DHT22;1055;48.854;9.302;2023-12-20T05:47:07;6.10;99.90
2100;DHT22;1055;48.854;9.302;2023-12-20T05:49:33;6.10;99.90
2100;DHT22;1055;48.854;9.302;2023-12-20T05:51:58;6.10;99.90
2100;DHT22;1055;48.854;9.302;2023-12-20T05:54:24;6.00;99.90
2100;DHT22;1055;48.854;9.302;2023-12-20T05:56:49;6.10;99.90
2100;DHT22;1055;48.854;9.302;2023-12-20T05:59:16;5.90;99.90
2100;DHT22;1055;48.854;9.302;2023-12-20T06:01:41;6.00;99.90
2100;DHT22;1055;48.854;9.302;2023-12-20T06:04:07;6.20;99.90
2100;DHT22;1055;48.854;9.302;2023-12-20T06:06:32;6.00;99.90
2100;DHT22;1055;48.854;9.302;2023-12-20T06:08:58;6.10;99.90
2100;DHT22;1055;48.854;9.302;2023-12-20T06:11:24;6.10;99.90
2100;DHT22;1055;48.854;9.302;2023-12-20T06:13:49;6.10;99.90
2100;DHT22;1055;48.854;9.302;2023-12-20T06:16:17;6.00;99.90
2100;DHT22;1055;48.854;9.302;2023-12-20T06:18:43;6.10;99.90
2100;DHT22;1055;48.854;9.302;2023-12-20T06:21:09;6.10;99.90
2100;DHT22;1055;48.854;9.302;2023-12-20T06:23:38;6.10;99.90
2100;DHT22;1055;48.854;9.302;2023-12-20T06:26:04;6.10;99.90
2100;DHT22;1055;48.854;9.302;2023-12-20T06:28:29;6.10;99.90
2100;DHT22;1055;48.854;9.302;2023-12-20T06:30:55;6.20;99.90
2100;DHT22;1055;48.854;9.302;2023-12-20T06:33:23;6.20;99.90
2100;DHT22;1055;48.854;9.302;2023-12-20T06:35:49;6.00;99.90
2100;DHT22;1055;48.854;9.302;2023-12-20T06:38:15;6.10;99.90
2100;DHT22;1055;48.854;9.302;2023-12-20T06:40:40;6.20;99.90
2100;DHT22;1055;48.854;9.302;2023-12-20T06:43:08;6.20;99.90
2100;DHT22;1055;48.854;9.302;2023-12-20T06:45:33;6.10;99.90
2100;DHT22;1055;48.854;9.302;2023-12-20T06:47:59;6.20;99.90
2100;DHT22;1055;48.854;9.302;2023-12-20T06:50:24;6.20;99.90
2100;DHT22;1055;48.854;9.302;2023-12-20T06:52:50;6.20;99.90
2100;DHT22;1055;48.854;9.302;2023-12-20T06:55:17;6.20;99.90
2100;DHT22;1055;48.854;9.302;2023-12-20T06:57:42;6.20;99.90
2100;DHT22;1055;48.854;9.302;2023-12-20T07:00:10;6.30;99.90
2100;DHT22;1055;48.854;9.302;2023-12-20T07:02:36;6.20;99.90
2100;DHT22;1055;48.854;9.302;2023-12-20T07:05:01;6.10;99.90
2100;DHT22;1055;48.854;9.302;2023-12-20T07:07:27;6.30;99.90
2100;DHT22;1055;48.854;9.302;2023-12-20T07:09:52;6.20;99.90
2100;DHT22;1055;48.854;9.302;2023-12-20T07:12:18;6.20;99.90
2100;DHT22;1055;48.854;9.302;2023-12-20T07:14:45;6.20;99.90
2100;DHT22;1055;48.854;9.302;2023-12-20T07:17:11;6.30;99.90
2100;DHT22;1055;48.854;9.302;2023-12-20T07:19:39;6.40;99.90
2100;DHT22;1055;48.854;9.302;2023-12-20T07:22:06;6.30;99.90
2100;DHT22;1055;48.854;9.302;2023-12-20T07:24:31;6.30;99.90
2100;DHT22;1055;48.854;9.302;2023-12-20T07:26:57;6.30;99.90
2100;DHT22;1055;48.854;9.302;2023-12-20T07:29:22;6.40;99.90
2100;DHT22;1055;48.854;9.302;2023-12-20T07:31:48;6.40;99.90
2100;DHT22;1055;48.854;9.302;2023-12-20T07:34:14;6.40;99.90
2100;DHT22;1055;48.854;9.302;2023-12-20T07:36:40;6.30;99.90
2100;DHT22;1055;48.854;9.302;2023-12-20T07:39:05;6.30;99.90
2100;DHT22;1055;48.854;9.302;2023-12-20T07:41:31;6.10;99.90
2100;DHT22;1055;48.854;9.302;2023-12-20T07:43:56;6.20;99.90
2100;DHT22;1055;48.854;9.302;2023-12-20T07:46:22;6.20;99.90
2100;DHT22;1055;48.854;9.302;2023-12-20T07:48:48;6.20;99.90
2100;DHT22;1055;48.854;9.302;2023-12-20T07:51:14;6.10;99.90
2100;DHT22;1055;48.854;9.302;2023-12-20T07:53:40;6.20;99.90
2100;DHT22;1055;48.854;9.302;2023-12-20T07:56:26;6.10;99.90
2100;DHT22;1055;48.854;9.302;2023-12-20T07:58:52;6.10;99.90
2100;DHT22;1055;48.854;9.302;2023-12-20T08:01:17;6.20;99.90
2100;DHT22;1055;48.854;9.302;2023-12-20T08:03:43;6.20;99.90
2100;DHT22;1055;48.854;9.302;2023-12-20T08:06:09;6.20;99.90
2100;DHT22;1055;48.854;9.302;2023-12-20T08:08:35;6.20;99.90
2100;DHT22;1055;48.854;9.302;2023-12-20T08:11:00;6.30;99.90
2100;DHT22;1055;48.854;9.302;2023-12-20T08:13:26;6.30;99.90
2100;DHT22;1055;48.854;9.302;2023-12-20T08:15:53;6.20;99.90
2100;DHT22;1055;48.854;9.302;2023-12-20T08:18:21;6.20;99.90
2100;DHT22;1055;48.854;9.302;2023-12-20T08:20:47;5.90;99.90
2100;DHT22;1055;48.854;9.302;2023-12-20T08:23:13;5.90;99.90
2100;DHT22;1055;48.854;9.302;2023-12-20T08:25:39;5.90;99.90
2100;DHT22;1055;48.854;9.302;2023-12-20T08:28:05;5.80;99.90
2100;DHT22;1055;48.854;9.302;2023-12-20T08:30:30;5.70;99.90
2100;DHT22;1055;48.854;9.302;2023-12-20T08:33:00;5.80;99.90
2100;DHT22;1055;48.854;9.302;2023-12-20T08:35:25;5.70;99.90
2100;DHT22;1055;48.854;9.302;2023-12-20T08:37:51;5.70;99.90
2100;DHT22;1055;48.854;9.302;2023-12-20T08:40:16;5.70;99.90
2100;DHT22;1055;48.854;9.302;2023-12-20T08:42:42;5.70;99.90
2100;DHT22;1055;48.854;9.302;2023-12-20T08:45:08;5.60;99.90
2100;DHT22;1055;48.854;9.302;2023-12-20T08:47:33;5.60;99.90
2100;DHT22;1055;48.854;9.302;2023-12-20T08:49:59;5.60;99.90
2100;DHT22;1055;48.854;9.302;2023-12-20T08:52:26;5.60;99.90
2100;DHT22;1055;48.854;9.302;2023-12-20T08:54:53;5.70;99.90
2100;DHT22;1055;48.854;9.302;2023-12-20T08:57:22;5.70;99.90
2100;DHT22;1055;48.854;9.302;2023-12-20T08:59:53;5.70;99.90
2100;DHT22;1055;48.854;9.302;2023-12-20T09:02:18;5.80;99.90
2100;DHT22;1055;48.854;9.302;2023-12-20T09:04:44;5.80;99.90
2100;DHT22;1055;48.854;9.302;2023-12-20T09:07:23;5.80;99.90
2100;DHT22;1055;48.854;9.302;2023-12-20T09:09:49;5.90;99.90
2100;DHT22;1055;48.854;9.302;2023-12-20T09:12:15;6.00;99.90
2100;DHT22;1055;48.854;9.302;2023-12-20T09:14:40;5.90;99.90
2100;DHT22;1055;48.854;9.302;2023-12-20T09:17:06;6.00;99.90
2100;DHT22;1055;48.854;9.302;2023-12-20T09:19:34;5.90;99.90
2100;DHT22;1055;48.854;9.302;2023-12-20T09:21:59;6.00;99.90
2100;DHT22;1055;48.854;9.302;2023-12-20T09:24:25;6.00;99.90
2100;DHT22;1055;48.854;9.302;2023-12-20T09:26:50;6.00;99.90
2100;DHT22;1055;48.854;9.302;2023-12-20T09:29:16;6.20;99.90
2100;DHT22;1055;48.854;9.302;2023-12-20T09:31:42;6.20;99.90
2100;DHT22;1055;48.854;9.302;2023-12-20T09:34:09;6.20;99.90
2100;DHT22;1055;48.854;9.302;2023-12-20T09:36:34;6.20;99.90
2100;DHT22;1055;48.854;9.302;2023-12-20T09:39:01;6.20;99.90
2100;DHT22;1055;48.854;9.302;2023-12-20T09:41:31;6.20;99.90
2100;DHT22;1055;48.854;9.302;2023-12-20T09:44:00;6.30;99.90
2100;DHT22;1055;48.854;9.302;2023-12-20T09:46:29;6.20;99.90
2100;DHT22;1055;48.854;9.302;2023-12-20T09:48:59;6.20;99.90
2100;DHT22;1055;48.854;9.302;2023-12-20T09:51:27;6.20;99.90
2100;DHT22;1055;48.854;9.302;2023-12-20T09:53:54;6.30;99.90
2100;DHT22;1055;48.854;9.302;2023-12-20T09:56:21;6.30;99.90
2100;DHT22;1055;48.854;9.302;2023-12-20T09:58:47;6.40;99.90
2100;DHT22;1055;48.854;9.302;2023-12-20T10:01:14;6.40;99.90
2100;DHT22;1055;48.854;9.302;2023-12-20T10:03:41;6.40;99.90
2100;DHT22;1055;48.854;9.302;2023-12-20T10:06:07;6.40;99.90
2100;DHT22;1055;48.854;9.302;2023-12-20T10:08:34;6.40;99.90
2100;DHT22;1055;48.854;9.302;2023-12-20T10:10:59;6.50;99.90
2100;DHT22;1055;48.854;9.302;2023-12-20T10:13:28;6.50;99.90
2100;DHT22;1055;48.854;9.302;2023-12-20T10:15:55;6.50;99.90
2100;DHT22;1055;48.854;9.302;2023-12-20T10:18:21;6.40;99.90
2100;DHT22;1055;48.854;9.302;2023-12-20T10:20:47;6.40;99.90
2100;DHT22;1055;48.854;9.302;2023-12-20T10:23:13;6.50;99.90
2100;DHT22;1055;48.854;9.302;2023-12-20T10:25:40;6.40;99.90
2100;DHT22;1055;48.854;9.302;2023-12-20T10:28:12;6.50;99.90
2100;DHT22;1055;48.854;9.302;2023-12-20T10:30:39;6.60;99.90
2100;DHT22;1055;48.854;9.302;2023-12-20T10:33:06;6.60;99.90
2100;DHT22;1055;48.854;9.302;2023-12-20T10:35:33;6.60;99.90
2100;DHT22;1055;48.854;9.302;2023-12-20T10:38:03;6.40;99.90
2100;DHT22;1055;48.854;9.302;2023-12-20T10:40:29;6.30;99.90
2100;DHT22;1055;48.854;9.302;2023-12-20T10:42:56;6.40;99.90
2100;DHT22;1055;48.854;9.302;2023-12-20T10:45:22;6.30;99.90
2100;DHT22;1055;48.854;9.302;2023-12-20T10:47:49;6.40;99.90
2100;DHT22;1055;48.854;9.302;2023-12-20T10:50:16;6.50;99.90
2100;DHT22;1055;48.854;9.302;2023-12-20T10:52:42;6.50;99.90
2100;DHT22;1055;48.854;9.302;2023-12-20T10:55:10;6.60;99.90
2100;DHT22;1055;48.854;9.302;2023-12-20T10:57:36;6.60;99.90
2100;DHT22;1055;48.854;9.302;2023-12-20T11:00:03;6.70;99.90
2100;DHT22;1055;48.854;9.302;2023-12-20T11:02:32;6.60;99.90
2100;DHT22;1055;48.854;9.302;2023-12-20T11:07:44;6.60;99.90
2100;DHT22;1055;48.854;9.302;2023-12-20T11:10:20;6.60;99.90
2100;DHT22;1055;48.854;9.302;2023-12-20T11:13:16;6.60;99.90
2100;DHT22;1055;48.854;9.302;2023-12-20T11:15:43;6.70;99.90
2100;DHT22;1055;48.854;9.302;2023-12-20T11:18:09;6.80;99.90
2100;DHT22;1055;48.854;9.302;2023-12-20T11:20:39;6.70;99.90
2100;DHT22;1055;48.854;9.302;2023-12-20T11:23:05;6.80;99.90
2100;DHT22;1055;48.854;9.302;2023-12-20T11:25:51;6.70;99.90
2100;DHT22;1055;48.854;9.302;2023-12-20T11:28:20;6.80;99.90
2100;DHT22;1055;48.854;9.302;2023-12-20T11:30:49;6.70;99.90
2100;DHT22;1055;48.854;9.302;2023-12-20T11:33:16;6.90;99.90
2100;DHT22;1055;48.854;9.302;2023-12-20T11:35:42;6.80;99.90
2100;DHT22;1055;48.854;9.302;2023-12-20T11:38:09;6.80;99.90
2100;DHT22;1055;48.854;9.302;2023-12-20T11:40:36;6.70;99.90
2100;DHT22;1055;48.854;9.302;2023-12-20T11:43:02;6.60;99.90
2100;DHT22;1055;48.854;9.302;2023-12-20T11:45:29;6.50;99.90
2100;DHT22;1055;48.854;9.302;2023-12-20T11:47:55;6.50;99.90
2100;DHT22;1055;48.854;9.302;2023-12-20T11:50:23;6.60;99.90
2100;DHT22;1055;48.854;9.302;2023-12-20T11:52:50;6.50;99.90
2100;DHT22;1055;48.854;9.302;2023-12-20T11:55:17;6.50;99.90
2100;DHT22;1055;48.854;9.302;2023-12-20T11:57:43;6.40;99.90
2100;DHT22;1055;48.854;9.302;2023-12-20T12:00:10;6.30;99.90
2100;DHT22;1055;48.854;9.302;2023-12-20T12:02:36;6.30;99.90
2100;DHT22;1055;48.854;9.302;2023-12-20T12:05:02;6.30;99.90
2100;DHT22;1055;48.854;9.302;2023-12-20T12:07:30;6.30;99.90
2100;DHT22;1055;48.854;9.302;2023-12-20T12:09:56;6.30;99.90
2100;DHT22;1055;48.854;9.302;2023-12-20T12:12:21;6.30;99.90
2100;DHT22;1055;48.854;9.302;2023-12-20T12:14:49;6.30;99.90
2100;DHT22;1055;48.854;9.302;2023-12-20T12:17:15;6.30;99.90
2100;DHT22;1055;48.854;9.302;2023-12-20T12:19:41;6.30;99.90
2100;DHT22;1055;48.854;9.302;2023-12-20T12:22:08;6.30;99.90
2100;DHT22;1055;48.854;9.302;2023-12-20T12:24:36;6.50;99.90
2100;DHT22;1055;48.854;9.302;2023-12-20T12:27:05;6.50;99.90
2100;DHT22;1055;48.854;9.302;2023-12-20T12:29:31;6.60;99.90
2100;DHT22;1055;48.854;9.302;2023-12-20T12:31:56;6.50;99.90
2100;DHT22;1055;48.854;9.302;2023-12-20T12:34:22;6.60;99.90
2100;DHT22;1055;48.854;9.302;2023-12-20T12:36:48;6.50;99.90
2100;DHT22;1055;48.854;9.302;2023-12-20T12:39:14;6.70;99.90
2100;DHT22;1055;48.854;9.302;2023-12-20T12:41:42;6.80;99.90
2100;DHT22;1055;48.854;9.302;2023-12-20T12:44:08;6.70;99.90
2100;DHT22;1055;48.854;9.302;2023-12-20T12:46:33;6.80;99.90
2100;DHT22;1055;48.854;9.302;2023-12-20T12:48:59;6.80;99.90
2100;DHT22;1055;48.854;9.302;2023-12-20T12:51:25;6.80;99.90
2100;DHT22;1055;48.854;9.302;2023-12-20T12:53:51;6.90;99.90
2100;DHT22;1055;48.854;9.302;2023-12-20T12:56:16;6.90;99.90
2100;DHT22;1055;48.854;9.302;2023-12-20T12:58:42;6.90;99.90
2100;DHT22;1055;48.854;9.302;2023-12-20T13:01:08;6.90;99.90
2100;DHT22;1055;48.854;9.302;2023-12-20T13:03:35;6.90;99.90
2100;DHT22;1055;48.854;9.302;2023-12-20T13:06:01;6.80;99.90
2100;DHT22;1055;48.854;9.302;2023-12-20T13:08:26;6.90;99.90
2100;DHT22;1055;48.854;9.302;2023-12-20T13:10:52;6.90;99.90
2100;DHT22;1055;48.854;9.302;2023-12-20T13:13:18;6.90;99.90
2100;DHT22;1055;48.854;9.302;2023-12-20T13:15:43;6.90;99.90
2100;DHT22;1055;48.854;9.302;2023-12-20T13:18:16;6.90;99.90
2100;DHT22;1055;48.854;9.302;2023-12-20T13:20:43;6.90;99.90
2100;DHT22;1055;48.854;9.302;2023-12-20T13:23:09;6.90;99.90
2100;DHT22;1055;48.854;9.302;2023-12-20T13:25:35;6.80;99.90
2100;DHT22;1055;48.854;9.302;2023-12-20T13:28:00;6.90;99.90
2100;DHT22;1055;48.854;9.302;2023-12-20T13:30:26;6.80;99.90
2100;DHT22;1055;48.854;9.302;2023-12-20T13:32:52;6.90;99.90
2100;DHT22;1055;48.854;9.302;2023-12-20T13:35:17;6.80;99.90
2100;DHT22;1055;48.854;9.302;2023-12-20T13:37:43;6.70;99.90
2100;DHT22;1055;48.854;9.302;2023-12-20T13:40:10;6.80;99.90
2100;DHT22;1055;48.854;9.302;2023-12-20T13:42:35;6.90;99.90
2100;DHT22;1055;48.854;9.302;2023-12-20T13:45:01;7.00;99.90
2100;DHT22;1055;48.854;9.302;2023-12-20T13:47:27;6.90;99.90
2100;DHT22;1055;48.854;9.302;2023-12-20T13:49:54;6.90;99.90
2100;DHT22;1055;48.854;9.302;2023-12-20T13:52:21;6.90;99.90
2100;DHT22;1055;48.854;9.302;2023-12-20T13:54:46;7.00;99.90
2100;DHT22;1055;48.854;9.302;2023-12-20T13:57:13;7.00;99.90
2100;DHT22;1055;48.854;9.302;2023-12-20T13:59:38;6.80;99.90
2100;DHT22;1055;48.854;9.302;2023-12-20T14:02:04;6.70;99.90
2100;DHT22;1055;48.854;9.302;2023-12-20T14:04:30;6.60;99.90
2100;DHT22;1055;48.854;9.302;2023-12-20T14:06:56;6.60;99.90
2100;DHT22;1055;48.854;9.302;2023-12-20T14:09:22;6.60;99.90
2100;DHT22;1055;48.854;9.302;2023-12-20T14:11:48;6.70;99.90
2100;DHT22;1055;48.854;9.302;2023-12-20T14:14:14;6.60;99.90
2100;DHT22;1055;48.854;9.302;2023-12-20T14:16:39;6.60;99.90
2100;DHT22;1055;48.854;9.302;2023-12-20T14:19:05;6.50;99.90
2100;DHT22;1055;48.854;9.302;2023-12-20T14:21:33;6.50;99.90
2100;DHT22;1055;48.854;9.302;2023-12-20T14:26:26;6.40;99.90
2100;DHT22;1055;48.854;9.302;2023-12-20T14:28:53;6.40;99.90
2100;DHT22;1055;48.854;9.302;2023-12-20T14:31:19;6.40;99.90
2100;DHT22;1055;48.854;9.302;2023-12-20T14:33:44;6.20;99.90
2100;DHT22;1055;48.854;9.302;2023-12-20T14:36:11;6.30;99.90
2100;DHT22;1055;48.854;9.302;2023-12-20T14:38:37;6.20;99.90
2100;DHT22;1055;48.854;9.302;2023-12-20T14:41:03;6.20;99.90
2100;DHT22;1055;48.854;9.302;2023-12-20T14:43:29;6.10;99.90
2100;DHT22;1055;48.854;9.302;2023-12-20T14:45:55;6.00;99.90
2100;DHT22;1055;48.854;9.302;2023-12-20T14:48:20;6.00;99.90
2100;DHT22;1055;48.854;9.302;2023-12-20T14:50:47;6.10;99.90
2100;DHT22;1055;48.854;9.302;2023-12-20T14:53:14;6.10;99.90
2100;DHT22;1055;48.854;9.302;2023-12-20T14:55:42;6.10;99.90
2100;DHT22;1055;48.854;9.302;2023-12-20T14:58:07;6.10;99.90
2100;DHT22;1055;48.854;9.302;2023-12-20T15:00:33;6.10;99.90
2100;DHT22;1055;48.854;9.302;2023-12-20T15:02:59;6.00;99.90
2100;DHT22;1055;48.854;9.302;2023-12-20T15:05:25;5.90;99.90
2100;DHT22;1055;48.854;9.302;2023-12-20T15:07:52;5.80;99.90
2100;DHT22;1055;48.854;9.302;2023-12-20T15:10:18;5.80;99.90
2100;DHT22;1055;48.854;9.302;2023-12-20T15:12:45;5.80;99.90
2100;DHT22;1055;48.854;9.302;2023-12-20T15:15:12;5.70;99.90
2100;DHT22;1055;48.854;9.302;2023-12-20T15:17:38;5.80;99.90
2100;DHT22;1055;48.854;9.302;2023-12-20T15:20:04;5.60;99.90
2100;DHT22;1055;48.854;9.302;2023-12-20T15:22:30;5.70;99.90
2100;DHT22;1055;48.854;9.302;2023-12-20T15:24:59;5.80;99.90
2100;DHT22;1055;48.854;9.302;2023-12-20T15:27:24;5.70;99.90
2100;DHT22;1055;48.854;9.302;2023-12-20T15:29:50;5.80;99.90
2100;DHT22;1055;48.854;9.302;2023-12-20T15:32:17;5.90;99.90
2100;DHT22;1055;48.854;9.302;2023-12-20T15:34:44;5.70;99.90
2100;DHT22;1055;48.854;9.302;2023-12-20T15:37:10;5.80;99.90
2100;DHT22;1055;48.854;9.302;2023-12-20T15:39:36;5.80;99.90
2100;DHT22;1055;48.854;9.302;2023-12-20T15:42:01;5.90;99.90
2100;DHT22;1055;48.854;9.302;2023-12-20T15:44:27;5.90;99.90
2100;DHT22;1055;48.854;9.302;2023-12-20T15:46:52;6.00;99.90
2100;DHT22;1055;48.854;9.302;2023-12-20T15:49:18;5.90;99.90
2100;DHT22;1055;48.854;9.302;2023-12-20T15:51:44;5.90;99.90
2100;DHT22;1055;48.854;9.302;2023-12-20T15:54:10;6.00;99.90
2100;DHT22;1055;48.854;9.302;2023-12-20T15:56:36;6.00;99.90
2100;DHT22;1055;48.854;9.302;2023-12-20T15:59:03;6.00;99.90
2100;DHT22;1055;48.854;9.302;2023-12-20T16:01:31;5.90;99.90
2100;DHT22;1055;48.854;9.302;2023-12-20T16:03:57;5.80;99.90
2100;DHT22;1055;48.854;9.302;2023-12-20T16:06:22;5.80;99.90
2100;DHT22;1055;48.854;9.302;2023-12-20T16:08:48;5.80;99.90
2100;DHT22;1055;48.854;9.302;2023-12-20T16:11:14;5.80;99.90
2100;DHT22;1055;48.854;9.302;2023-12-20T16:13:39;5.70;99.90
2100;DHT22;1055;48.854;9.302;2023-12-20T16:16:05;5.60;99.90